Amsterdam, New York
Current Conditions -  °F | °C
As of 6:15 AM on Thursday 23 Oct 2014 (Local Time) from KNY0 Reporting Station
Overcast Overcast  
Wind Chill:   Ceiling: 2500
Heat Index:   Visibility: 10mi
Dew Point:   Wind: 5mph
Humidity: 95%   Direction: 350°N
Pressure: 29.89"   Gusts: NA
Location:  42.94°N, 74.19°W
Report Text: KNY0 231015Z AUTO 35004KT 10SM OVC025 08/07 A2989 RMK AO2 T00750067
Loading
Personal Weather Stations






























Interactive Weather Map
Tropical Storm Tracking
New forecast layout! Learn more

10-Day Weather Forecast

Advertisements
Track Severe Weather on mobile